Latest Weather Observations for Walgett

IDN60801

Issued at 5:13 pm EDT Saturday 5 December 2020 (issued every 10 minutes, with the page automatically refreshed every 10 minutes)

About weather observations | Map of weather stations | Latest weather observations for NSW | Other Formats
Station Details ID: 052088 Name: WALGETT AIRPORT AWS Lat: -30.04 Lon: 148.12 Height: 133.0 m
Data from the previous 72 hours. | See also: Recent months at Walgett
Date/Time
EDT
Temp
°C
App
Temp
°C
Dew
Point
°C
Rel
Hum
%
Delta-T
°C
Wind Press
QNH
hPa
Press
MSL
hPa
Rain since
9am
mm
Dir  Spd
km/h
Gust
km/h
Spd
kts
Gust
kts
05/05:00pm 26.1 28.4 20.7 72 3.6 NE 9 19 5 10 1004.2 1003.4 1.4
05/04:56pm 25.9 26.9 20.2 71 3.7 NNE 15 28 8 15 1004.4 1003.6 1.4
05/04:44pm 26.7 23.1 18.6 61 5.2 NNW 35 61 19 33 1005.3 1004.5 1.4
05/04:39pm 31.7 31.0 18.3 45 8.7 N 19 50 10 27 1004.8 1004.0 0.8
05/04:38pm 33.1 32.9 18.5 42 9.5 N 17 37 9 20 1004.7 1003.9 0.6
05/04:30pm 33.5 33.7 17.6 38 10.3 NE 13 20 7 11 1002.5 1001.7 0.6
05/04:00pm 34.2 33.6 15.6 32 11.7 SE 13 24 7 13 1003.7 1002.9 0.2
05/03:30pm 37.6 35.9 14.8 25 14.3 E 17 28 9 15 1003.0 1002.2 0.0
05/03:00pm 38.3 37.5 16.0 27 14.3 ESE 15 20 8 11 1003.8 1003.0 0.0
05/02:30pm 36.0 36.6 15.7 30 12.9 SSE 7 11 4 6 1004.9 1004.1 0.0
05/02:00pm 36.7 36.5 14.6 26 13.9 SSW 9 15 5 8 1005.7 1004.9 0.0
05/01:30pm 36.9 37.1 14.8 26 13.9 WNW 7 13 4 7 1006.4 1005.6 0.0
05/01:00pm 37.6 37.5 16.0 28 13.8 NNW 11 19 6 10 1007.1 1006.3 0.0
05/12:30pm 34.8 35.6 14.7 30 12.5 W 4 11 2 6 1007.8 1007.1 0.0
05/12:00pm 34.2 34.7 15.1 31 12.0 SSE 6 9 3 5 1008.3 1007.6 0.0
05/11:30am 33.8 33.1 15.3 33 11.6 W 13 20 7 11 1009.1 1008.4 0.0
05/11:00am 32.5 32.6 15.5 36 10.6 NW 9 13 5 7 1009.7 1008.9 0.0
05/10:30am 32.4 32.8 16.3 38 10.2 N 9 17 5 9 1009.2 1008.5 0.0
05/10:00am 32.0 32.6 16.7 40 9.7 N 9 13 5 7 1009.2 1008.5 0.0
05/09:30am 31.4 30.0 16.6 41 9.4 NNE 19 22 10 12 1009.2 1008.5 0.0
05/09:00am 31.1 29.8 16.7 42 9.1 N 19 24 10 13 1009.1 1008.4 0.0
05/08:30am 31.3 30.0 17.2 42 9.0 NNE 20 28 11 15 1009.1 1008.4 0.0
05/08:00am 29.5 28.4 17.3 47 7.8 NE 19 24 10 13 1009.1 1008.4 0.0
05/07:30am 27.4 27.2 17.6 55 6.2 NE 15 20 8 11 1009.0 1008.3 0.0
05/07:00am 25.4 25.7 17.1 60 5.2 NE 11 15 6 8 1008.9 1008.2 0.0
05/06:30am 23.5 23.7 16.8 66 4.1 NE 11 15 6 8 1008.8 1008.1 0.0
05/06:00am 23.0 23.0 16.3 66 4.1 NE 11 15 6 8 1008.5 1007.8 0.0
05/05:30am 23.2 23.0 16.7 67 4.0 NNE 13 15 7 8 1008.3 1007.6 0.0
05/05:00am 23.4 22.8 16.7 66 4.1 NE 15 17 8 9 1008.1 1007.4 0.0
05/04:30am 23.4 23.7 16.9 67 4.0 NE 11 13 6 7 1008.1 1007.4 0.0
05/04:00am 23.4 24.2 17.2 68 3.9 NE 9 11 5 6 1008.0 1007.3 0.0
05/03:30am 23.7 24.5 17.2 67 4.0 NE 9 9 5 5 1008.2 1007.5 0.0
05/03:00am 24.0 24.8 17.3 66 4.2 NE 9 11 5 6 1008.3 1007.6 0.0
05/02:30am 25.4 26.1 17.1 60 5.2 NE 9 15 5 8 1008.5 1007.8 0.0
05/02:00am 25.9 27.0 17.0 58 5.6 NE 7 9 4 5 1009.0 1008.3 0.0
05/01:30am 26.5 26.3 17.6 58 5.6 NNE 15 17 8 9 1009.3 1008.6 0.0
05/01:00am 26.8 26.6 17.6 57 5.8 NNE 15 19 8 10 1009.6 1008.8 0.0
05/12:30am 26.9 26.7 17.7 57 5.8 NE 15 17 8 9 1009.9 1009.1 0.0
05/12:00am 27.7 27.5 17.5 53 6.5 NE 15 19 8 10 1010.3 1009.5 0.0
 
Date/Time
EDT
Temp
°C
App
Temp
°C
Dew
Point
°C
Rel
Hum
%
Delta-T
°C
Wind Press
QNH
hPa
Press
MSL
hPa
Rain since
9am
mm
Dir  Spd
km/h
Gust
km/h
Spd
kts
Gust
kts
04/11:30pm 28.1 28.5 17.3 52 6.8 NE 11 17 6 9 1010.7 1009.9 0.0
04/11:00pm 28.4 28.7 17.0 50 7.2 NE 11 15 6 8 1010.6 1009.8 0.0
04/10:30pm 29.3 29.3 17.2 48 7.7 E 13 17 7 9 1010.3 1009.5 0.0
04/10:22pm 29.4 29.4 17.2 47 7.7 E 13 17 7 9 1010.3 1009.5 0.0
04/10:01pm 29.3 29.9 16.8 47 7.9 ESE 9 11 5 6 1010.0 1009.2 0.0
04/10:00pm 29.4 30.0 16.9 47 7.9 ESE 9 11 5 6 1010.0 1009.2 0.0
04/09:30pm 28.8 28.5 16.4 47 7.8 SSE 13 15 7 8 1009.5 1008.7 0.0
04/09:00pm 30.5 30.7 15.8 41 9.2 SSE 9 9 5 5 1009.1 1008.4 0.0
04/08:30pm 31.7 31.6 16.0 38 9.9 S 11 13 6 7 1008.9 1008.2 0.0
04/08:00pm 33.5 33.0 15.0 32 11.5 S 11 13 6 7 1008.8 1008.1 0.0
04/07:30pm 35.7 34.4 13.8 27 13.5 SSW 13 17 7 9 1008.5 1007.8 0.0
04/07:00pm 35.5 33.6 14.2 28 13.2 S 17 22 9 12 1008.3 1007.6 0.0
04/06:30pm 37.1 35.2 11.8 22 15.2 SW 13 19 7 10 1008.1 1007.4 0.0
04/06:00pm 38.6 37.5 13.1 22 15.8 WSW 11 17 6 9 1008.2 1007.5 0.0
04/05:30pm 38.4 36.1 12.9 22 15.7 WNW 17 28 9 15 1008.3 1007.6 0.0
04/05:00pm 38.3 36.2 14.8 25 14.8 WNW 19 33 10 18 1008.7 1008.0 0.0
04/04:30pm 36.7 36.7 15.2 27 13.6 WNW 9 17 5 9 1009.2 1008.5 0.0
04/04:00pm 37.2 36.8 15.1 27 14.0 WNW 11 24 6 13 1009.9 1009.1 0.0
04/03:30pm 37.8 37.7 16.1 27 13.9 WNW 11 24 6 13 1010.3 1009.5 0.0
04/03:00pm 37.6 36.8 16.0 28 13.8 WSW 15 24 8 13 1010.9 1010.1 0.0
04/02:30pm 37.5 36.9 17.5 30 13.1 W 17 33 9 18 1011.3 1010.5 0.0
04/02:00pm 36.7 35.8 16.8 30 12.8 WNW 17 24 9 13 1012.0 1011.2 0.0
04/01:30pm 35.4 35.0 17.1 33 11.8 NW 15 30 8 16 1012.5 1011.7 0.0
04/01:00pm 35.6 35.6 18.2 35 11.4 N 15 22 8 12 1013.1 1012.3 0.0
04/12:30pm 34.6 33.7 17.8 37 10.9 NW 19 28 10 15 1013.6 1012.8 0.0
04/12:00pm 33.7 32.6 17.8 38 10.3 NNW 20 30 11 16 1014.2 1013.5 0.0
04/11:30am 32.9 31.9 17.9 41 9.7 NNW 20 30 11 16 1014.6 1013.9 0.0
04/11:00am 32.2 30.6 18.4 44 9.0 N 24 33 13 18 1014.9 1014.2 0.0
04/10:30am 31.1 29.6 18.5 47 8.2 N 24 35 13 19 1015.3 1014.6 0.0
04/10:00am 30.2 27.7 18.0 48 7.8 N 28 37 15 20 1015.2 1014.5 0.0
04/09:30am 29.2 26.8 18.3 51 7.0 N 28 35 15 19 1015.7 1015.0 0.0
04/09:00am 27.8 26.6 18.5 57 6.0 N 22 32 12 17 1016.0 1015.3 15.2
04/08:30am 26.8 25.8 18.9 62 5.1 NNE 22 30 12 16 1016.1 1015.4 15.2
04/08:00am 26.0 25.9 18.7 64 4.7 NNE 17 26 9 14 1016.2 1015.5 15.2
04/07:30am 24.3 25.5 18.2 68 3.9 NNE 9 20 5 11 1016.3 1015.6 15.2
04/07:00am 22.8 24.8 18.8 78 2.5 NE 6 9 3 5 1015.6 1014.9 15.2
04/06:30am 21.7 23.9 19.1 85 1.7 ENE 6 7 3 4 1015.4 1014.7 15.2
04/06:00am 22.1 23.9 18.7 81 2.2 N 7 9 4 5 1014.9 1014.2 15.2
04/05:30am 22.0 22.9 18.4 80 2.3 N 11 15 6 8 1014.8 1014.1 15.2
04/05:00am 22.1 22.3 18.5 80 2.3 NNE 15 19 8 10 1014.6 1013.9 15.2
04/04:30am 21.9 21.8 18.7 82 2.0 NNE 17 22 9 12 1014.2 1013.5 15.2
04/04:00am 22.0 21.5 18.6 81 2.1 NNE 19 22 10 12 1014.5 1013.8 15.2
04/03:30am 22.0 21.5 19.2 84 1.8 NE 20 26 11 14 1014.4 1013.7 15.2
04/03:00am 22.1 22.8 19.6 86 1.6 NE 15 20 8 11 1014.5 1013.8 15.2
04/02:30am 22.2 21.9 19.6 85 1.7 NE 20 26 11 14 1015.4 1014.7 15.2
04/02:00am 22.0 21.8 19.4 85 1.7 NE 19 28 10 15 1015.4 1014.7 15.2
04/01:30am 22.3 21.1 19.3 83 1.9 NE 24 32 13 17 1015.7 1015.0 15.2
04/01:00am 22.5 22.2 19.5 83 1.9 NE 20 28 11 15 1015.5 1014.8 15.2
04/12:30am 23.1 22.8 19.5 80 2.3 NE 20 32 11 17 1015.2 1014.5 15.2
04/12:00am 24.0 24.3 19.5 76 2.9 NE 17 24 9 13 1015.3 1014.6 15.2
 
Date/Time
EDT
Temp
°C
App
Temp
°C
Dew
Point
°C
Rel
Hum
%
Delta-T
°C
Wind Press
QNH
hPa
Press
MSL
hPa
Rain since
9am
mm
Dir  Spd
km/h
Gust
km/h
Spd
kts
Gust
kts
03/11:30pm 24.4 24.3 19.9 76 2.9 NE 20 32 11 17 1015.1 1014.4 15.2
03/11:00pm 24.2 26.4 20.3 79 2.5 ESE 9 11 5 6 1015.5 1014.8 15.2
03/10:30pm 24.6 27.0 19.7 74 3.2 SW 6 9 3 5 1015.8 1015.1 15.2
03/10:00pm 25.7 25.8 19.1 67 4.2 NNE 17 22 9 12 1015.2 1014.5 15.2
03/09:30pm 25.8 25.2 19.7 69 4.0 NNE 22 33 12 18 1015.7 1015.0 15.2
03/09:00pm 24.7 26.2 19.8 74 3.2 E 11 19 6 10 1015.5 1014.8 15.2
03/08:30pm 24.8 25.2 19.8 74 3.2 SE 17 20 9 11 1015.1 1014.4 15.2
03/08:00pm 25.2 24.3 19.8 72 3.5 SE 24 32 13 17 1014.7 1014.0 15.2
03/07:30pm 24.6 24.1 19.9 75 3.1 SE 22 32 12 17 1014.4 1013.7 15.2
03/07:15pm 24.4 23.6 20.1 77 2.8 SE 24 35 13 19 1014.3 1013.6 15.2
03/07:00pm 24.1 22.7 20.4 80 2.4 SSE 28 41 15 22 1014.8 1014.1 14.8
03/06:49pm 25.2 24.0 19.3 70 3.8 SE 24 33 13 18 1015.0 1014.3 11.0
03/06:30pm 28.6 26.5 19.8 59 5.8 SSE 30 43 16 23 1014.2 1013.5 8.2
03/06:18pm 27.8 25.7 20.9 66 4.6 SE 33 46 18 25 1013.7 1012.9 8.2
03/06:02pm 28.3 25.1 20.3 62 5.3 NNE 37 70 20 38 1013.8 1013.1 7.6
03/06:00pm 27.3 23.2 19.9 64 4.8 N 41 76 22 41 1013.7 1012.9 7.2
03/05:58pm 28.7 24.7 20.2 60 5.6 NNW 41 76 22 41 1014.2 1013.5 6.0
03/05:53pm 25.8 21.6 15.8 54 6.1 NNW 32 76 17 41 1012.8 1012.0 3.2
03/05:52pm 26.8 23.4 15.8 51 6.8 NNW 28 76 15 41 1012.9 1012.1 2.2
03/05:51pm 27.4 25.9 17.6 55 6.2 NW 22 65 12 35 1012.8 1012.0 1.6
03/05:49pm 32.1 32.1 19.0 45 8.6 NW 17 30 9 16 1012.6 1011.8 0.4
03/05:30pm 37.1 38.0 16.6 29 13.2 SE 7 13 4 7 1012.0 1011.2 0.0
03/05:00pm 37.5 37.6 16.4 28 13.6 SSW 11 19 6 10 1012.2 1011.4 0.0
03/04:30pm 38.2 39.1 16.5 28 14.0 SSW 7 13 4 7 1012.5 1011.7 0.0
03/04:00pm 37.5 38.3 16.4 28 13.6 WNW 7 11 4 6 1013.1 1012.3 0.0
03/03:30pm 37.3 36.6 16.3 29 13.5 NNE 15 19 8 10 1013.3 1012.5 0.0
03/03:00pm 36.8 37.2 16.4 30 13.1 NE 9 17 5 9 1013.9 1013.2 0.0
03/02:30pm 37.5 37.8 17.0 30 13.3 NNW 11 17 6 9 1014.2 1013.5 0.0
03/02:00pm 36.1 36.5 16.3 31 12.7 NNE 9 15 5 8 1014.5 1013.8 0.0
03/01:30pm 36.7 37.3 16.8 30 12.8 N 9 17 5 9 1015.0 1014.3 0.0
03/01:00pm 36.5 36.5 17.1 31 12.5 WSW 13 22 7 12 1015.4 1014.7 0.0
03/12:30pm 35.7 36.3 16.9 32 12.1 W 9 19 5 10 1016.0 1015.3 0.0
03/12:00pm 35.4 36.1 17.1 33 11.8 NNE 9 19 5 10 1016.1 1015.4 0.0
03/11:30am 34.0 34.8 17.2 36 10.8 S 9 19 5 10 1016.4 1015.7 0.0
03/11:00am 32.9 32.5 17.1 39 10.1 NNW 15 24 8 13 1016.8 1016.1 0.0
03/10:30am 32.4 33.2 18.2 42 9.2 NE 11 20 6 11 1016.9 1016.2 0.0
03/10:00am 32.1 33.0 18.3 44 9.0 NE 11 17 6 9 1016.8 1016.1 0.0
03/09:30am 30.1 30.0 17.9 48 7.8 NNE 15 20 8 11 1016.8 1016.1 0.0
03/09:00am 30.5 30.5 18.2 47 7.9 NE 15 24 8 13 1016.6 1015.9 0.0
03/08:30am 29.0 28.4 17.5 49 7.3 NE 17 24 9 13 1016.4 1015.7 0.0
03/08:00am 28.1 27.1 16.7 50 7.1 E 17 26 9 14 1016.2 1015.5 0.0
03/07:53am 27.5 26.2 14.8 45 7.7 E 15 20 8 11 1016.0 1015.3 0.0
03/07:33am 25.9 25.0 12.7 44 7.7 SSW 9 11 5 6 1016.4 1015.7 0.0
03/07:30am 25.6 24.6 12.4 43 7.6 S 9 11 5 6 1016.4 1015.7 0.0
03/07:00am 23.4 20.7 9.0 40 7.8 ENE 13 15 7 8 1015.3 1014.6 0.0
03/06:30am 22.4 20.0 7.0 37 8.0 S 9 11 5 6 1016.0 1015.3 0.0
03/06:00am 20.1 17.5 4.2 35 7.7 S 7 9 4 5 1015.7 1015.0 0.0
03/05:30am 20.1 16.9 3.3 33 8.0 SSW 9 11 5 6 1015.6 1014.9 0.0
03/05:00am 20.1 17.2 2.5 31 8.2 S 7 13 4 7 1015.1 1014.4 0.0
03/04:30am 20.4 17.6 2.3 30 8.5 SSW 6 9 3 5 1015.3 1014.6 0.0
03/04:00am 20.5 17.7 1.9 29 8.6 SSW 6 13 3 7 1015.5 1014.8 0.0
03/03:30am 20.4 17.5 1.3 28 8.7 SSE 6 7 3 4 1015.3 1014.6 0.0
03/03:00am 21.6 18.2 1.8 27 9.2 SE 9 13 5 7 1015.2 1014.5 0.0
03/02:30am 21.0 17.5 1.3 27 9.1 SSE 9 11 5 6 1015.6 1014.9 0.0
03/02:00am 21.3 17.8 1.0 26 9.3 SSE 9 11 5 6 1016.0 1015.3 0.0
03/01:30am 21.7 17.7 0.8 25 9.6 S 11 15 6 8 1016.1 1015.4 0.0
03/01:00am 22.9 18.6 0.7 23 10.2 SSE 13 17 7 9 1016.3 1015.6 0.0
03/12:30am 23.9 18.2 0.3 21 10.9 S 20 28 11 15 1016.8 1016.1 0.0
03/12:00am 24.3 17.7 -0.1 20 11.2 S 24 32 13 17 1016.9 1016.2 0.0
 
Date/Time
EDT
Temp
°C
App
Temp
°C
Dew
Point
°C
Rel
Hum
%
Delta-T
°C
Wind Press
QNH
hPa
Press
MSL
hPa
Rain since
9am
mm
Dir  Spd
km/h
Gust
km/h
Spd
kts
Gust
kts
02/11:30pm 25.0 17.7 -0.2 19 11.6 S 28 35 15 19 1017.0 1016.3 0.0
02/11:00pm 25.5 17.7 -0.5 18 12.0 S 30 37 16 20 1016.9 1016.2 0.0
02/10:30pm 26.1 18.8 0.0 18 12.2 S 28 41 15 22 1016.7 1016.0 0.0
02/10:00pm 27.1 19.7 -0.9 16 12.9 S 28 33 15 18 1016.4 1015.7 0.0
02/09:30pm 28.1 21.2 -2.9 13 13.9 S 24 30 13 16 1016.1 1015.4 0.0
02/09:00pm 29.0 21.3 -3.2 12 14.5 S 28 35 15 19 1015.6 1014.9 0.0
02/08:30pm 29.9 23.5 -1.5 13 14.7 S 22 28 12 15 1015.1 1014.4 0.0
02/08:00pm 31.2 24.4 -1.5 12 15.4 S 24 32 13 17 1014.6 1013.9 0.0
02/07:30pm 32.3 24.7 -1.9 11 16.2 S 28 39 15 21 1014.4 1013.7 0.0
02/07:00pm 33.3 25.1 -1.1 11 16.6 S 32 43 17 23 1013.9 1013.2 0.0
02/06:30pm 34.2 26.4 1.9 13 16.5 S 32 41 17 22 1013.5 1012.7 0.0
02/06:00pm 34.5 26.7 3.1 14 16.3 S 33 43 18 23 1013.2 1012.4 0.0
02/05:30pm 35.5 27.5 3.9 14 16.8 S 35 46 19 25 1013.0 1012.2 0.0

Other formats

Comma delimited format used in spreadsheet applications
http://www.bom.gov.au/fwo/IDN60801/IDN60801.95715.axf

JavaScript Object Notation format (JSON) in row-major order
http://www.bom.gov.au/fwo/IDN60801/IDN60801.95715.json

Data quality

Most of these data are generated automatically and are frequently updated. Quality checks on data are not normally performed. It is possible for incorrect values to appear. Refer to information at About Latest Weather Observations and please check the disclaimer before using these data.